sensor_id;sensor_type;location;lat;lon;timestamp;P1;durP1;ratioP1;P2;durP2;ratioP2
71965;SDS011;59836;52.132;5.442;2022-12-18T00:01:18;38.13;;;13.60;;
71965;SDS011;59836;52.132;5.442;2022-12-18T00:03:47;33.58;;;12.63;;
71965;SDS011;59836;52.132;5.442;2022-12-18T00:06:14;34.42;;;12.77;;
71965;SDS011;59836;52.132;5.442;2022-12-18T00:08:42;39.72;;;12.90;;
71965;SDS011;59836;52.132;5.442;2022-12-18T00:11:14;33.37;;;14.17;;
71965;SDS011;59836;52.132;5.442;2022-12-18T00:13:42;40.70;;;14.30;;
71965;SDS011;59836;52.132;5.442;2022-12-18T00:16:10;36.85;;;13.05;;
71965;SDS011;59836;52.132;5.442;2022-12-18T00:18:38;39.28;;;12.35;;
71965;SDS011;59836;52.132;5.442;2022-12-18T00:21:06;35.17;;;13.43;;
71965;SDS011;59836;52.132;5.442;2022-12-18T00:23:34;41.63;;;13.27;;
71965;SDS011;59836;52.132;5.442;2022-12-18T00:26:05;39.17;;;14.15;;
71965;SDS011;59836;52.132;5.442;2022-12-18T00:28:33;35.55;;;12.95;;
71965;SDS011;59836;52.132;5.442;2022-12-18T00:31:07;40.47;;;15.30;;
71965;SDS011;59836;52.132;5.442;2022-12-18T00:33:36;42.92;;;15.82;;
71965;SDS011;59836;52.132;5.442;2022-12-18T00:36:04;43.37;;;15.27;;
71965;SDS011;59836;52.132;5.442;2022-12-18T00:38:32;44.67;;;15.70;;
71965;SDS011;59836;52.132;5.442;2022-12-18T00:40:59;40.42;;;14.88;;
71965;SDS011;59836;52.132;5.442;2022-12-18T00:43:26;40.70;;;15.35;;
71965;SDS011;59836;52.132;5.442;2022-12-18T00:45:53;39.88;;;16.95;;
71965;SDS011;59836;52.132;5.442;2022-12-18T00:48:19;43.13;;;15.07;;
71965;SDS011;59836;52.132;5.442;2022-12-18T00:50:47;35.08;;;14.88;;
71965;SDS011;59836;52.132;5.442;2022-12-18T00:53:14;42.35;;;14.23;;
71965;SDS011;59836;52.132;5.442;2022-12-18T00:55:41;38.13;;;14.52;;
71965;SDS011;59836;52.132;5.442;2022-12-18T00:58:09;38.63;;;13.50;;
71965;SDS011;59836;52.132;5.442;2022-12-18T01:00:36;39.63;;;14.30;;
71965;SDS011;59836;52.132;5.442;2022-12-18T01:03:03;34.03;;;14.20;;
71965;SDS011;59836;52.132;5.442;2022-12-18T01:05:30;36.78;;;13.88;;
71965;SDS011;59836;52.132;5.442;2022-12-18T01:07:57;39.20;;;15.52;;
71965;SDS011;59836;52.132;5.442;2022-12-18T01:10:24;35.72;;;14.10;;
71965;SDS011;59836;52.132;5.442;2022-12-18T01:12:51;39.57;;;13.33;;
71965;SDS011;59836;52.132;5.442;2022-12-18T01:15:18;37.88;;;13.02;;
71965;SDS011;59836;52.132;5.442;2022-12-18T01:17:45;41.60;;;14.90;;
71965;SDS011;59836;52.132;5.442;2022-12-18T01:20:11;40.55;;;14.45;;
71965;SDS011;59836;52.132;5.442;2022-12-18T01:22:38;48.20;;;14.93;;
71965;SDS011;59836;52.132;5.442;2022-12-18T01:25:04;34.80;;;14.27;;
71965;SDS011;59836;52.132;5.442;2022-12-18T01:27:32;38.53;;;14.48;;
71965;SDS011;59836;52.132;5.442;2022-12-18T01:29:59;39.47;;;13.80;;
71965;SDS011;59836;52.132;5.442;2022-12-18T01:32:25;32.40;;;13.23;;
71965;SDS011;59836;52.132;5.442;2022-12-18T01:34:52;38.47;;;13.38;;
71965;SDS011;59836;52.132;5.442;2022-12-18T01:37:18;38.77;;;14.10;;
71965;SDS011;59836;52.132;5.442;2022-12-18T01:39:45;39.45;;;13.98;;
71965;SDS011;59836;52.132;5.442;2022-12-18T01:42:12;41.90;;;13.63;;
71965;SDS011;59836;52.132;5.442;2022-12-18T01:50:04;32.57;;;12.23;;
71965;SDS011;59836;52.132;5.442;2022-12-18T01:52:34;35.13;;;12.98;;
71965;SDS011;59836;52.132;5.442;2022-12-18T01:55:03;41.85;;;14.50;;
71965;SDS011;59836;52.132;5.442;2022-12-18T01:57:32;36.72;;;13.27;;
71965;SDS011;59836;52.132;5.442;2022-12-18T02:00:00;37.78;;;14.02;;
71965;SDS011;59836;52.132;5.442;2022-12-18T02:02:29;39.20;;;13.30;;
71965;SDS011;59836;52.132;5.442;2022-12-18T02:04:56;35.97;;;15.60;;
71965;SDS011;59836;52.132;5.442;2022-12-18T02:07:26;32.53;;;13.45;;
71965;SDS011;59836;52.132;5.442;2022-12-18T02:10:00;41.92;;;15.57;;
71965;SDS011;59836;52.132;5.442;2022-12-18T02:12:43;33.55;;;13.30;;
71965;SDS011;59836;52.132;5.442;2022-12-18T02:15:26;31.33;;;12.10;;
71965;SDS011;59836;52.132;5.442;2022-12-18T02:18:11;39.28;;;14.20;;
71965;SDS011;59836;52.132;5.442;2022-12-18T02:20:48;34.65;;;12.50;;
71965;SDS011;59836;52.132;5.442;2022-12-18T02:26:20;34.30;;;13.38;;
71965;SDS011;59836;52.132;5.442;2022-12-18T02:28:56;31.23;;;12.53;;
71965;SDS011;59836;52.132;5.442;2022-12-18T02:31:32;36.88;;;13.50;;
71965;SDS011;59836;52.132;5.442;2022-12-18T02:34:05;32.30;;;13.32;;
71965;SDS011;59836;52.132;5.442;2022-12-18T02:36:33;38.50;;;12.98;;
71965;SDS011;59836;52.132;5.442;2022-12-18T02:39:05;36.35;;;11.98;;
71965;SDS011;59836;52.132;5.442;2022-12-18T02:41:35;32.50;;;12.40;;
71965;SDS011;59836;52.132;5.442;2022-12-18T02:44:06;33.67;;;13.63;;
71965;SDS011;59836;52.132;5.442;2022-12-18T02:46:39;32.38;;;12.93;;
71965;SDS011;59836;52.132;5.442;2022-12-18T02:49:17;31.88;;;11.98;;
71965;SDS011;59836;52.132;5.442;2022-12-18T02:55:13;33.73;;;13.07;;
71965;SDS011;59836;52.132;5.442;2022-12-18T02:57:49;30.10;;;11.98;;
71965;SDS011;59836;52.132;5.442;2022-12-18T03:00:21;26.90;;;10.50;;
71965;SDS011;59836;52.132;5.442;2022-12-18T03:02:56;36.97;;;12.95;;
71965;SDS011;59836;52.132;5.442;2022-12-18T03:05:39;29.50;;;13.65;;
71965;SDS011;59836;52.132;5.442;2022-12-18T03:08:18;30.30;;;12.47;;
71965;SDS011;59836;52.132;5.442;2022-12-18T03:10:59;28.40;;;10.73;;
71965;SDS011;59836;52.132;5.442;2022-12-18T03:16:32;27.17;;;11.45;;
71965;SDS011;59836;52.132;5.442;2022-12-18T03:19:02;29.35;;;11.50;;
71965;SDS011;59836;52.132;5.442;2022-12-18T03:21:34;29.43;;;11.50;;
71965;SDS011;59836;52.132;5.442;2022-12-18T03:24:08;29.38;;;12.30;;
71965;SDS011;59836;52.132;5.442;2022-12-18T03:26:37;32.17;;;11.05;;
71965;SDS011;59836;52.132;5.442;2022-12-18T03:29:15;27.13;;;10.43;;
71965;SDS011;59836;52.132;5.442;2022-12-18T03:31:53;31.17;;;11.32;;
71965;SDS011;59836;52.132;5.442;2022-12-18T03:34:32;24.63;;;11.00;;
71965;SDS011;59836;52.132;5.442;2022-12-18T03:37:01;26.38;;;10.95;;
71965;SDS011;59836;52.132;5.442;2022-12-18T03:39:28;23.38;;;10.25;;
71965;SDS011;59836;52.132;5.442;2022-12-18T03:44:53;24.40;;;9.38;;
71965;SDS011;59836;52.132;5.442;2022-12-18T03:52:41;23.10;;;10.77;;
71965;SDS011;59836;52.132;5.442;2022-12-18T03:55:26;26.70;;;10.38;;
71965;SDS011;59836;52.132;5.442;2022-12-18T03:57:56;25.40;;;11.30;;
71965;SDS011;59836;52.132;5.442;2022-12-18T04:00:24;25.00;;;10.43;;
71965;SDS011;59836;52.132;5.442;2022-12-18T04:02:52;30.50;;;11.45;;
71965;SDS011;59836;52.132;5.442;2022-12-18T04:05:21;24.70;;;10.57;;
71965;SDS011;59836;52.132;5.442;2022-12-18T04:07:50;22.70;;;10.05;;
71965;SDS011;59836;52.132;5.442;2022-12-18T04:10:18;24.10;;;10.45;;
71965;SDS011;59836;52.132;5.442;2022-12-18T04:12:44;22.90;;;10.47;;
71965;SDS011;59836;52.132;5.442;2022-12-18T04:15:11;26.60;;;9.95;;
71965;SDS011;59836;52.132;5.442;2022-12-18T04:17:38;23.35;;;10.57;;
71965;SDS011;59836;52.132;5.442;2022-12-18T04:20:13;22.02;;;10.82;;
71965;SDS011;59836;52.132;5.442;2022-12-18T04:22:40;25.95;;;9.77;;
71965;SDS011;59836;52.132;5.442;2022-12-18T04:25:06;23.93;;;10.23;;
71965;SDS011;59836;52.132;5.442;2022-12-18T04:27:33;20.15;;;9.88;;
71965;SDS011;59836;52.132;5.442;2022-12-18T04:30:00;22.45;;;9.68;;
71965;SDS011;59836;52.132;5.442;2022-12-18T04:32:27;21.08;;;9.40;;
71965;SDS011;59836;52.132;5.442;2022-12-18T04:34:53;22.67;;;9.75;;
71965;SDS011;59836;52.132;5.442;2022-12-18T04:37:19;20.23;;;9.70;;
71965;SDS011;59836;52.132;5.442;2022-12-18T04:39:46;24.08;;;9.90;;
71965;SDS011;59836;52.132;5.442;2022-12-18T04:42:12;20.40;;;9.20;;
71965;SDS011;59836;52.132;5.442;2022-12-18T04:44:39;21.55;;;9.25;;
71965;SDS011;59836;52.132;5.442;2022-12-18T04:47:05;19.35;;;8.63;;
71965;SDS011;59836;52.132;5.442;2022-12-18T04:49:31;21.83;;;8.83;;
71965;SDS011;59836;52.132;5.442;2022-12-18T04:51:58;19.83;;;8.43;;
71965;SDS011;59836;52.132;5.442;2022-12-18T04:54:24;15.90;;;8.60;;
71965;SDS011;59836;52.132;5.442;2022-12-18T04:56:51;16.92;;;7.75;;
71965;SDS011;59836;52.132;5.442;2022-12-18T04:59:18;22.92;;;8.52;;
71965;SDS011;59836;52.132;5.442;2022-12-18T05:01:44;16.97;;;8.37;;
71965;SDS011;59836;52.132;5.442;2022-12-18T05:04:12;21.05;;;8.85;;
71965;SDS011;59836;52.132;5.442;2022-12-18T05:06:38;15.98;;;8.38;;
71965;SDS011;59836;52.132;5.442;2022-12-18T05:09:04;18.02;;;7.78;;
71965;SDS011;59836;52.132;5.442;2022-12-18T05:11:31;17.48;;;8.50;;
71965;SDS011;59836;52.132;5.442;2022-12-18T05:13:57;17.77;;;7.57;;
71965;SDS011;59836;52.132;5.442;2022-12-18T05:16:24;16.08;;;7.63;;
71965;SDS011;59836;52.132;5.442;2022-12-18T05:18:50;18.23;;;7.40;;
71965;SDS011;59836;52.132;5.442;2022-12-18T05:21:17;16.73;;;8.23;;
71965;SDS011;59836;52.132;5.442;2022-12-18T05:23:43;19.92;;;9.15;;
71965;SDS011;59836;52.132;5.442;2022-12-18T05:26:09;17.27;;;8.30;;
71965;SDS011;59836;52.132;5.442;2022-12-18T05:28:41;15.43;;;7.47;;
71965;SDS011;59836;52.132;5.442;2022-12-18T05:31:08;19.23;;;8.48;;
71965;SDS011;59836;52.132;5.442;2022-12-18T05:33:34;19.20;;;8.88;;
71965;SDS011;59836;52.132;5.442;2022-12-18T05:36:02;23.83;;;9.50;;
71965;SDS011;59836;52.132;5.442;2022-12-18T05:38:30;16.43;;;8.40;;
71965;SDS011;59836;52.132;5.442;2022-12-18T05:40:58;19.48;;;7.15;;
71965;SDS011;59836;52.132;5.442;2022-12-18T05:43:25;15.48;;;7.38;;
71965;SDS011;59836;52.132;5.442;2022-12-18T05:45:52;17.38;;;7.63;;
71965;SDS011;59836;52.132;5.442;2022-12-18T05:48:20;17.83;;;8.68;;
71965;SDS011;59836;52.132;5.442;2022-12-18T05:50:47;16.57;;;7.60;;
71965;SDS011;59836;52.132;5.442;2022-12-18T05:53:16;18.10;;;8.55;;
71965;SDS011;59836;52.132;5.442;2022-12-18T05:55:45;17.83;;;7.28;;
71965;SDS011;59836;52.132;5.442;2022-12-18T05:58:12;17.00;;;7.53;;
71965;SDS011;59836;52.132;5.442;2022-12-18T06:00:41;15.38;;;7.25;;
71965;SDS011;59836;52.132;5.442;2022-12-18T06:03:09;14.67;;;6.57;;
71965;SDS011;59836;52.132;5.442;2022-12-18T06:05:41;18.15;;;7.60;;
71965;SDS011;59836;52.132;5.442;2022-12-18T06:08:09;18.90;;;7.70;;
71965;SDS011;59836;52.132;5.442;2022-12-18T06:10:36;13.70;;;8.10;;
71965;SDS011;59836;52.132;5.442;2022-12-18T06:13:03;16.48;;;7.32;;
71965;SDS011;59836;52.132;5.442;2022-12-18T06:15:30;16.23;;;6.67;;
71965;SDS011;59836;52.132;5.442;2022-12-18T06:17:57;22.55;;;8.07;;
71965;SDS011;59836;52.132;5.442;2022-12-18T06:20:23;15.77;;;8.02;;
71965;SDS011;59836;52.132;5.442;2022-12-18T06:22:56;22.30;;;8.32;;
71965;SDS011;59836;52.132;5.442;2022-12-18T06:25:23;18.88;;;7.72;;
71965;SDS011;59836;52.132;5.442;2022-12-18T06:27:49;15.70;;;7.30;;
71965;SDS011;59836;52.132;5.442;2022-12-18T06:30:16;17.83;;;8.48;;
71965;SDS011;59836;52.132;5.442;2022-12-18T06:32:42;16.33;;;7.50;;
71965;SDS011;59836;52.132;5.442;2022-12-18T06:35:09;14.45;;;7.15;;
71965;SDS011;59836;52.132;5.442;2022-12-18T06:37:36;15.77;;;8.27;;
71965;SDS011;59836;52.132;5.442;2022-12-18T06:40:02;14.83;;;7.60;;
71965;SDS011;59836;52.132;5.442;2022-12-18T06:42:29;14.02;;;7.38;;
71965;SDS011;59836;52.132;5.442;2022-12-18T06:44:55;19.58;;;8.45;;
71965;SDS011;59836;52.132;5.442;2022-12-18T06:47:21;15.30;;;6.93;;
71965;SDS011;59836;52.132;5.442;2022-12-18T06:49:49;17.77;;;6.45;;
71965;SDS011;59836;52.132;5.442;2022-12-18T06:52:15;17.00;;;8.20;;
71965;SDS011;59836;52.132;5.442;2022-12-18T06:54:42;23.55;;;8.10;;
71965;SDS011;59836;52.132;5.442;2022-12-18T06:57:08;16.10;;;7.22;;
71965;SDS011;59836;52.132;5.442;2022-12-18T06:59:35;15.60;;;6.60;;
71965;SDS011;59836;52.132;5.442;2022-12-18T07:02:01;13.40;;;6.53;;
71965;SDS011;59836;52.132;5.442;2022-12-18T07:04:28;17.83;;;7.57;;
71965;SDS011;59836;52.132;5.442;2022-12-18T07:06:55;15.15;;;7.10;;
71965;SDS011;59836;52.132;5.442;2022-12-18T07:09:22;12.52;;;7.07;;
71965;SDS011;59836;52.132;5.442;2022-12-18T07:11:49;15.23;;;7.78;;
71965;SDS011;59836;52.132;5.442;2022-12-18T07:14:15;11.88;;;6.63;;
71965;SDS011;59836;52.132;5.442;2022-12-18T07:16:41;16.03;;;7.77;;
71965;SDS011;59836;52.132;5.442;2022-12-18T07:19:08;16.63;;;6.85;;
71965;SDS011;59836;52.132;5.442;2022-12-18T07:21:34;13.43;;;7.60;;
71965;SDS011;59836;52.132;5.442;2022-12-18T07:24:01;16.40;;;7.22;;
71965;SDS011;59836;52.132;5.442;2022-12-18T07:26:27;12.73;;;7.05;;
71965;SDS011;59836;52.132;5.442;2022-12-18T07:28:54;13.00;;;6.23;;
71965;SDS011;59836;52.132;5.442;2022-12-18T07:31:22;16.88;;;8.50;;
71965;SDS011;59836;52.132;5.442;2022-12-18T07:33:50;14.55;;;7.18;;
71965;SDS011;59836;52.132;5.442;2022-12-18T07:36:17;14.98;;;7.50;;
71965;SDS011;59836;52.132;5.442;2022-12-18T07:38:46;15.93;;;6.50;;
71965;SDS011;59836;52.132;5.442;2022-12-18T07:41:13;13.70;;;6.70;;
71965;SDS011;59836;52.132;5.442;2022-12-18T07:43:40;15.63;;;7.57;;
71965;SDS011;59836;52.132;5.442;2022-12-18T07:46:08;12.23;;;6.00;;
71965;SDS011;59836;52.132;5.442;2022-12-18T07:48:35;11.00;;;5.80;;
71965;SDS011;59836;52.132;5.442;2022-12-18T07:51:02;15.40;;;7.22;;
71965;SDS011;59836;52.132;5.442;2022-12-18T07:53:31;14.43;;;6.40;;
71965;SDS011;59836;52.132;5.442;2022-12-18T07:55:59;16.63;;;7.10;;
71965;SDS011;59836;52.132;5.442;2022-12-18T07:58:48;17.20;;;6.95;;
71965;SDS011;59836;52.132;5.442;2022-12-18T08:01:14;11.25;;;6.20;;
71965;SDS011;59836;52.132;5.442;2022-12-18T08:03:42;15.95;;;7.47;;
71965;SDS011;59836;52.132;5.442;2022-12-18T08:06:09;14.93;;;5.60;;
71965;SDS011;59836;52.132;5.442;2022-12-18T08:08:36;12.00;;;6.50;;
71965;SDS011;59836;52.132;5.442;2022-12-18T08:11:02;16.40;;;7.05;;
71965;SDS011;59836;52.132;5.442;2022-12-18T08:13:29;13.68;;;6.72;;
71965;SDS011;59836;52.132;5.442;2022-12-18T08:15:56;10.48;;;6.22;;
71965;SDS011;59836;52.132;5.442;2022-12-18T08:18:27;14.40;;;6.57;;
71965;SDS011;59836;52.132;5.442;2022-12-18T08:20:54;11.25;;;6.82;;
71965;SDS011;59836;52.132;5.442;2022-12-18T08:23:21;13.02;;;5.90;;
71965;SDS011;59836;52.132;5.442;2022-12-18T08:25:48;12.55;;;7.28;;
71965;SDS011;59836;52.132;5.442;2022-12-18T08:28:14;13.75;;;7.05;;
71965;SDS011;59836;52.132;5.442;2022-12-18T08:30:40;14.73;;;7.30;;
71965;SDS011;59836;52.132;5.442;2022-12-18T08:33:08;14.63;;;7.03;;
71965;SDS011;59836;52.132;5.442;2022-12-18T08:35:35;13.50;;;7.13;;
71965;SDS011;59836;52.132;5.442;2022-12-18T08:38:10;14.48;;;7.20;;
71965;SDS011;59836;52.132;5.442;2022-12-18T08:40:37;15.75;;;7.15;;
71965;SDS011;59836;52.132;5.442;2022-12-18T08:43:03;13.17;;;7.17;;
71965;SDS011;59836;52.132;5.442;2022-12-18T08:45:48;18.52;;;7.70;;
71965;SDS011;59836;52.132;5.442;2022-12-18T08:48:15;17.20;;;7.25;;
71965;SDS011;59836;52.132;5.442;2022-12-18T08:50:56;17.38;;;8.55;;
71965;SDS011;59836;52.132;5.442;2022-12-18T08:53:24;18.90;;;8.27;;
71965;SDS011;59836;52.132;5.442;2022-12-18T08:55:50;15.07;;;7.40;;
71965;SDS011;59836;52.132;5.442;2022-12-18T08:58:17;16.77;;;7.97;;
71965;SDS011;59836;52.132;5.442;2022-12-18T09:00:43;18.58;;;8.52;;
71965;SDS011;59836;52.132;5.442;2022-12-18T09:03:11;21.00;;;8.88;;
71965;SDS011;59836;52.132;5.442;2022-12-18T09:05:38;20.67;;;8.50;;
71965;SDS011;59836;52.132;5.442;2022-12-18T09:08:05;18.07;;;8.60;;
71965;SDS011;59836;52.132;5.442;2022-12-18T09:10:32;19.70;;;8.32;;
71965;SDS011;59836;52.132;5.442;2022-12-18T09:13:02;17.08;;;8.93;;
71965;SDS011;59836;52.132;5.442;2022-12-18T09:15:29;11.85;;;6.80;;
71965;SDS011;59836;52.132;5.442;2022-12-18T09:17:55;15.48;;;7.30;;
71965;SDS011;59836;52.132;5.442;2022-12-18T09:20:21;13.10;;;7.03;;
71965;SDS011;59836;52.132;5.442;2022-12-18T09:22:48;15.95;;;7.90;;
71965;SDS011;59836;52.132;5.442;2022-12-18T09:25:15;12.50;;;6.75;;
71965;SDS011;59836;52.132;5.442;2022-12-18T09:27:41;16.25;;;6.72;;
71965;SDS011;59836;52.132;5.442;2022-12-18T09:30:08;16.02;;;7.82;;
71965;SDS011;59836;52.132;5.442;2022-12-18T09:32:34;12.70;;;6.93;;
71965;SDS011;59836;52.132;5.442;2022-12-18T09:35:01;12.70;;;5.95;;
71965;SDS011;59836;52.132;5.442;2022-12-18T09:37:27;11.80;;;6.30;;
71965;SDS011;59836;52.132;5.442;2022-12-18T09:39:54;16.33;;;5.97;;
71965;SDS011;59836;52.132;5.442;2022-12-18T09:42:21;12.00;;;6.00;;
71965;SDS011;59836;52.132;5.442;2022-12-18T09:44:49;10.97;;;5.70;;
71965;SDS011;59836;52.132;5.442;2022-12-18T09:47:26;15.98;;;7.18;;
71965;SDS011;59836;52.132;5.442;2022-12-18T09:52:50;12.55;;;6.28;;
71965;SDS011;59836;52.132;5.442;2022-12-18T09:55:25;11.50;;;5.50;;
71965;SDS011;59836;52.132;5.442;2022-12-18T10:00:58;14.30;;;6.20;;
71965;SDS011;59836;52.132;5.442;2022-12-18T10:03:25;10.48;;;5.30;;
71965;SDS011;59836;52.132;5.442;2022-12-18T10:05:58;11.50;;;5.90;;
71965;SDS011;59836;52.132;5.442;2022-12-18T10:17:02;9.85;;;5.45;;
71965;SDS011;59836;52.132;5.442;2022-12-18T10:23:18;10.68;;;6.25;;
71965;SDS011;59836;52.132;5.442;2022-12-18T10:26:05;9.33;;;4.80;;
71965;SDS011;59836;52.132;5.442;2022-12-18T10:28:34;11.77;;;5.00;;
71965;SDS011;59836;52.132;5.442;2022-12-18T10:31:04;9.80;;;4.70;;
71965;SDS011;59836;52.132;5.442;2022-12-18T10:33:32;9.18;;;4.80;;
71965;SDS011;59836;52.132;5.442;2022-12-18T10:35:59;11.15;;;5.13;;
71965;SDS011;59836;52.132;5.442;2022-12-18T10:38:27;14.40;;;5.43;;
71965;SDS011;59836;52.132;5.442;2022-12-18T10:41:02;7.45;;;3.90;;
71965;SDS011;59836;52.132;5.442;2022-12-18T10:51:06;11.17;;;5.70;;
71965;SDS011;59836;52.132;5.442;2022-12-18T10:53:38;11.20;;;4.93;;
71965;SDS011;59836;52.132;5.442;2022-12-18T10:56:08;12.48;;;6.65;;
71965;SDS011;59836;52.132;5.442;2022-12-18T10:58:35;12.13;;;5.55;;
71965;SDS011;59836;52.132;5.442;2022-12-18T11:03:39;10.27;;;5.60;;
71965;SDS011;59836;52.132;5.442;2022-12-18T11:06:17;9.25;;;5.45;;
71965;SDS011;59836;52.132;5.442;2022-12-18T11:09:03;9.50;;;5.18;;
71965;SDS011;59836;52.132;5.442;2022-12-18T11:11:39;8.18;;;4.35;;
71965;SDS011;59836;52.132;5.442;2022-12-18T11:14:17;8.85;;;5.20;;
71965;SDS011;59836;52.132;5.442;2022-12-18T11:16:49;9.97;;;4.77;;
71965;SDS011;59836;52.132;5.442;2022-12-18T11:19:38;13.40;;;4.80;;
71965;SDS011;59836;52.132;5.442;2022-12-18T11:22:20;10.90;;;5.30;;
71965;SDS011;59836;52.132;5.442;2022-12-18T11:24:53;9.77;;;4.55;;
71965;SDS011;59836;52.132;5.442;2022-12-18T11:27:54;9.52;;;4.78;;
71965;SDS011;59836;52.132;5.442;2022-12-18T11:30:29;11.20;;;4.57;;
71965;SDS011;59836;52.132;5.442;2022-12-18T11:33:09;12.75;;;5.00;;
71965;SDS011;59836;52.132;5.442;2022-12-18T11:35:49;11.70;;;5.53;;
71965;SDS011;59836;52.132;5.442;2022-12-18T11:38:35;10.23;;;5.30;;
71965;SDS011;59836;52.132;5.442;2022-12-18T11:44:16;10.70;;;4.60;;
71965;SDS011;59836;52.132;5.442;2022-12-18T11:47:01;9.93;;;4.38;;
71965;SDS011;59836;52.132;5.442;2022-12-18T11:49:35;11.77;;;4.82;;
71965;SDS011;59836;52.132;5.442;2022-12-18T11:52:16;14.52;;;6.43;;
71965;SDS011;59836;52.132;5.442;2022-12-18T11:54:47;10.73;;;5.55;;
71965;SDS011;59836;52.132;5.442;2022-12-18T11:57:25;10.60;;;4.97;;
71965;SDS011;59836;52.132;5.442;2022-12-18T12:13:27;10.30;;;4.70;;
71965;SDS011;59836;52.132;5.442;2022-12-18T12:16:00;13.02;;;6.25;;
71965;SDS011;59836;52.132;5.442;2022-12-18T12:21:21;10.18;;;5.88;;
71965;SDS011;59836;52.132;5.442;2022-12-18T12:29:57;12.05;;;6.00;;
71965;SDS011;59836;52.132;5.442;2022-12-18T12:32:32;12.98;;;6.18;;
71965;SDS011;59836;52.132;5.442;2022-12-18T12:35:25;12.32;;;5.75;;
71965;SDS011;59836;52.132;5.442;2022-12-18T12:38:13;13.33;;;5.83;;
71965;SDS011;59836;52.132;5.442;2022-12-18T12:40:47;11.07;;;5.40;;
71965;SDS011;59836;52.132;5.442;2022-12-18T12:43:31;9.05;;;5.03;;
71965;SDS011;59836;52.132;5.442;2022-12-18T12:46:16;12.23;;;5.57;;
71965;SDS011;59836;52.132;5.442;2022-12-18T12:53:54;11.30;;;6.18;;
71965;SDS011;59836;52.132;5.442;2022-12-18T12:56:24;11.55;;;5.63;;
71965;SDS011;59836;52.132;5.442;2022-12-18T12:59:04;12.23;;;6.50;;
71965;SDS011;59836;52.132;5.442;2022-12-18T13:04:15;11.47;;;5.93;;
71965;SDS011;59836;52.132;5.442;2022-12-18T13:07:01;14.07;;;6.45;;
71965;SDS011;59836;52.132;5.442;2022-12-18T13:10:11;12.27;;;6.05;;
71965;SDS011;59836;52.132;5.442;2022-12-18T13:13:05;11.75;;;5.32;;
71965;SDS011;59836;52.132;5.442;2022-12-18T13:15:44;13.80;;;5.57;;
71965;SDS011;59836;52.132;5.442;2022-12-18T13:18:16;15.10;;;6.73;;
71965;SDS011;59836;52.132;5.442;2022-12-18T13:31:01;11.73;;;5.70;;
71965;SDS011;59836;52.132;5.442;2022-12-18T13:38:37;11.85;;;5.95;;
71965;SDS011;59836;52.132;5.442;2022-12-18T13:43:43;11.50;;;6.77;;
71965;SDS011;59836;52.132;5.442;2022-12-18T13:46:22;12.43;;;7.03;;
71965;SDS011;59836;52.132;5.442;2022-12-18T13:48:55;11.23;;;6.45;;
71965;SDS011;59836;52.132;5.442;2022-12-18T13:51:29;11.68;;;6.13;;
71965;SDS011;59836;52.132;5.442;2022-12-18T13:54:00;12.75;;;6.65;;
71965;SDS011;59836;52.132;5.442;2022-12-18T13:56:30;11.97;;;5.90;;
71965;SDS011;59836;52.132;5.442;2022-12-18T14:01:51;11.85;;;6.60;;
71965;SDS011;59836;52.132;5.442;2022-12-18T14:06:45;13.52;;;7.07;;
71965;SDS011;59836;52.132;5.442;2022-12-18T14:09:15;12.60;;;6.43;;
71965;SDS011;59836;52.132;5.442;2022-12-18T14:11:47;12.95;;;6.47;;
71965;SDS011;59836;52.132;5.442;2022-12-18T14:14:16;12.70;;;6.38;;
71965;SDS011;59836;52.132;5.442;2022-12-18T14:16:45;12.73;;;7.35;;
71965;SDS011;59836;52.132;5.442;2022-12-18T14:19:17;14.77;;;6.60;;
71965;SDS011;59836;52.132;5.442;2022-12-18T14:21:47;14.20;;;6.33;;
71965;SDS011;59836;52.132;5.442;2022-12-18T14:24:20;13.98;;;6.90;;
71965;SDS011;59836;52.132;5.442;2022-12-18T14:26:48;12.13;;;6.88;;
71965;SDS011;59836;52.132;5.442;2022-12-18T14:29:21;11.95;;;6.28;;
71965;SDS011;59836;52.132;5.442;2022-12-18T14:37:17;13.75;;;7.13;;
71965;SDS011;59836;52.132;5.442;2022-12-18T14:39:51;14.05;;;6.47;;
71965;SDS011;59836;52.132;5.442;2022-12-18T14:42:34;15.20;;;7.65;;
71965;SDS011;59836;52.132;5.442;2022-12-18T14:48:08;13.83;;;6.43;;
71965;SDS011;59836;52.132;5.442;2022-12-18T14:50:57;12.57;;;6.25;;
71965;SDS011;59836;52.132;5.442;2022-12-18T14:53:32;17.30;;;7.10;;
71965;SDS011;59836;52.132;5.442;2022-12-18T14:56:02;14.90;;;6.47;;
71965;SDS011;59836;52.132;5.442;2022-12-18T14:58:38;14.00;;;6.65;;
71965;SDS011;59836;52.132;5.442;2022-12-18T15:01:05;12.40;;;6.23;;
71965;SDS011;59836;52.132;5.442;2022-12-18T15:03:32;18.98;;;9.15;;
71965;SDS011;59836;52.132;5.442;2022-12-18T15:06:14;16.27;;;7.40;;
71965;SDS011;59836;52.132;5.442;2022-12-18T15:08:42;14.55;;;7.30;;
71965;SDS011;59836;52.132;5.442;2022-12-18T15:11:28;15.68;;;6.93;;
71965;SDS011;59836;52.132;5.442;2022-12-18T15:13:59;11.63;;;6.47;;
71965;SDS011;59836;52.132;5.442;2022-12-18T15:16:26;14.50;;;6.55;;
71965;SDS011;59836;52.132;5.442;2022-12-18T15:18:53;12.93;;;6.32;;
71965;SDS011;59836;52.132;5.442;2022-12-18T15:21:20;14.57;;;6.90;;
71965;SDS011;59836;52.132;5.442;2022-12-18T15:23:48;15.10;;;7.75;;
71965;SDS011;59836;52.132;5.442;2022-12-18T15:26:19;14.37;;;6.83;;
71965;SDS011;59836;52.132;5.442;2022-12-18T15:28:48;14.88;;;7.05;;
71965;SDS011;59836;52.132;5.442;2022-12-18T15:31:21;12.85;;;6.70;;
71965;SDS011;59836;52.132;5.442;2022-12-18T15:36:21;15.93;;;7.47;;
71965;SDS011;59836;52.132;5.442;2022-12-18T15:38:52;15.53;;;7.80;;
71965;SDS011;59836;52.132;5.442;2022-12-18T15:41:21;14.82;;;7.60;;
71965;SDS011;59836;52.132;5.442;2022-12-18T15:43:50;17.55;;;8.77;;
71965;SDS011;59836;52.132;5.442;2022-12-18T15:46:19;17.73;;;8.07;;
71965;SDS011;59836;52.132;5.442;2022-12-18T15:48:48;17.33;;;6.80;;
71965;SDS011;59836;52.132;5.442;2022-12-18T15:51:17;19.97;;;9.00;;
71965;SDS011;59836;52.132;5.442;2022-12-18T15:53:47;17.63;;;8.13;;
71965;SDS011;59836;52.132;5.442;2022-12-18T15:56:15;23.60;;;9.38;;
71965;SDS011;59836;52.132;5.442;2022-12-18T15:59:00;21.95;;;8.65;;
71965;SDS011;59836;52.132;5.442;2022-12-18T16:01:28;19.70;;;8.30;;
71965;SDS011;59836;52.132;5.442;2022-12-18T16:03:56;16.90;;;8.10;;
71965;SDS011;59836;52.132;5.442;2022-12-18T16:06:23;15.30;;;7.07;;
71965;SDS011;59836;52.132;5.442;2022-12-18T16:08:49;13.27;;;7.03;;
71965;SDS011;59836;52.132;5.442;2022-12-18T16:11:20;14.13;;;7.60;;
71965;SDS011;59836;52.132;5.442;2022-12-18T16:14:12;18.05;;;8.40;;
71965;SDS011;59836;52.132;5.442;2022-12-18T16:16:46;15.27;;;8.10;;
71965;SDS011;59836;52.132;5.442;2022-12-18T16:19:14;22.98;;;8.48;;
71965;SDS011;59836;52.132;5.442;2022-12-18T16:21:40;15.70;;;8.10;;
71965;SDS011;59836;52.132;5.442;2022-12-18T16:24:17;16.40;;;8.48;;
71965;SDS011;59836;52.132;5.442;2022-12-18T16:26:45;14.95;;;7.68;;
71965;SDS011;59836;52.132;5.442;2022-12-18T16:29:11;15.60;;;8.13;;
71965;SDS011;59836;52.132;5.442;2022-12-18T16:31:38;17.65;;;8.02;;
71965;SDS011;59836;52.132;5.442;2022-12-18T16:34:11;14.98;;;7.90;;
71965;SDS011;59836;52.132;5.442;2022-12-18T16:36:38;20.13;;;8.82;;
71965;SDS011;59836;52.132;5.442;2022-12-18T16:39:05;16.33;;;7.95;;
71965;SDS011;59836;52.132;5.442;2022-12-18T16:41:31;19.13;;;9.37;;
71965;SDS011;59836;52.132;5.442;2022-12-18T16:43:58;19.27;;;9.00;;
71965;SDS011;59836;52.132;5.442;2022-12-18T16:46:25;17.80;;;8.90;;
71965;SDS011;59836;52.132;5.442;2022-12-18T16:48:52;19.23;;;8.75;;